createdAt,value
2019-05-20T00:00:16.268Z,5.90
2019-05-20T00:02:57.983Z,6.23
2019-05-20T00:05:39.867Z,5.70
2019-05-20T00:08:22.084Z,5.60
2019-05-20T00:11:03.810Z,5.63
2019-05-20T00:13:45.497Z,5.10
2019-05-20T00:16:27.303Z,6.10
2019-05-20T00:19:09.174Z,6.43
2019-05-20T00:21:50.907Z,5.90
2019-05-20T00:24:32.884Z,6.43
2019-05-20T00:27:14.615Z,6.83
2019-05-20T00:29:56.627Z,6.20
2019-05-20T00:32:41.867Z,6.03
2019-05-20T00:35:20.882Z,7.20
2019-05-20T00:41:40.068Z,7.10
2019-05-20T00:48:04.800Z,8.63
2019-05-20T00:51:13.847Z,8.33
2019-05-20T00:54:22.940Z,9.23
2019-05-20T00:57:32.046Z,9.17
2019-05-20T01:00:41.150Z,9.57
2019-05-20T01:03:31.148Z,9.10
2019-05-20T01:06:40.214Z,10.10
2019-05-20T01:19:04.667Z,10.93
2019-05-20T01:21:46.534Z,10.20
2019-05-20T01:24:28.686Z,10.23
2019-05-20T01:27:10.850Z,10.30
2019-05-20T01:29:53.284Z,10.53
2019-05-20T01:32:35.187Z,10.20
2019-05-20T01:35:17.022Z,11.10
2019-05-20T01:37:59.193Z,10.50
2019-05-20T01:40:41.266Z,9.73
2019-05-20T01:43:23.353Z,10.20
2019-05-20T01:46:05.234Z,10.73
2019-05-20T01:48:47.464Z,10.60
2019-05-20T01:51:29.295Z,10.00
2019-05-20T01:54:11.310Z,9.07
2019-05-20T01:56:53.639Z,8.53
2019-05-20T01:59:36.336Z,8.20
2019-05-20T02:02:18.558Z,8.57
2019-05-20T02:05:00.896Z,8.20
2019-05-20T02:07:42.898Z,8.40
2019-05-20T02:10:25.212Z,7.80
2019-05-20T02:13:07.132Z,8.27
2019-05-20T02:19:05.440Z,8.23
2019-05-20T02:21:47.723Z,7.90
2019-05-20T02:24:29.926Z,8.23
2019-05-20T02:27:12.087Z,7.43
2019-05-20T02:29:54.258Z,7.60
2019-05-20T02:32:36.348Z,7.63
2019-05-20T02:35:18.992Z,7.50
2019-05-20T02:38:00.984Z,7.20
2019-05-20T02:40:42.864Z,7.23
2019-05-20T02:43:24.764Z,6.73
2019-05-20T02:46:06.997Z,6.97
2019-05-20T02:48:49.257Z,6.87
2019-05-20T02:51:34.214Z,7.00
2019-05-20T02:54:16.315Z,6.93
2019-05-20T02:56:58.690Z,7.33
2019-05-20T02:59:40.783Z,6.90
2019-05-20T03:02:22.742Z,7.23
2019-05-20T03:05:04.507Z,7.73
2019-05-20T03:07:46.782Z,6.77
2019-05-20T03:10:28.898Z,7.50
2019-05-20T03:13:11.271Z,7.13
2019-05-20T03:15:52.969Z,7.40
2019-05-20T03:18:35.068Z,7.20
2019-05-20T03:21:17.247Z,7.53
2019-05-20T03:24:00.235Z,7.87
2019-05-20T03:26:42.103Z,7.30
2019-05-20T03:29:24.194Z,6.10
2019-05-20T03:32:07.533Z,6.90
2019-05-20T03:34:58.840Z,6.10
2019-05-20T03:37:33.750Z,5.27
2019-05-20T03:40:16.170Z,5.40
2019-05-20T03:42:58.389Z,5.50
2019-05-20T03:45:40.599Z,6.53
2019-05-20T03:48:23.312Z,4.50
2019-05-20T03:51:05.788Z,4.83
2019-05-20T03:53:47.755Z,5.00
2019-05-20T03:56:30.432Z,4.90
2019-05-20T03:59:12.479Z,5.07
2019-05-20T04:01:55.596Z,5.10
2019-05-20T04:04:38.115Z,5.40
2019-05-20T04:07:20.273Z,5.33
2019-05-20T04:10:02.522Z,6.93
2019-05-20T04:12:44.488Z,7.03
2019-05-20T04:15:26.564Z,7.37
2019-05-20T04:18:08.671Z,6.63
2019-05-20T04:20:50.703Z,6.90
2019-05-20T04:23:32.853Z,6.60
2019-05-20T04:26:14.976Z,5.53
2019-05-20T04:28:57.607Z,5.43
2019-05-20T04:31:39.851Z,5.20
2019-05-20T04:34:21.912Z,5.43
2019-05-20T04:37:03.595Z,4.60
2019-05-20T04:39:45.720Z,5.10
2019-05-20T04:42:27.475Z,4.70
2019-05-20T04:45:09.947Z,5.03
2019-05-20T04:47:51.966Z,6.90
2019-05-20T04:50:34.446Z,6.07
2019-05-20T04:53:16.434Z,6.23
2019-05-20T04:55:58.561Z,6.30
2019-05-20T04:58:40.746Z,7.90
2019-05-20T05:01:23.296Z,7.03
2019-05-20T05:04:05.649Z,6.77
2019-05-20T05:06:47.940Z,6.40
2019-05-20T05:09:30.116Z,6.00
2019-05-20T05:12:12.589Z,5.77
2019-05-20T05:14:54.467Z,6.20
2019-05-20T05:17:36.693Z,6.43
2019-05-20T05:20:18.926Z,6.37
2019-05-20T05:23:00.880Z,6.97
2019-05-20T05:25:42.974Z,6.70
2019-05-20T05:28:25.571Z,6.60
2019-05-20T05:31:07.410Z,6.40
2019-05-20T05:33:49.542Z,7.47
2019-05-20T05:36:31.292Z,6.63
2019-05-20T05:39:13.686Z,7.60
2019-05-20T05:41:44.273Z,6.90
2019-05-20T05:44:14.856Z,7.67
2019-05-20T05:46:45.439Z,6.87
2019-05-20T05:49:16.325Z,7.30
2019-05-20T05:51:48.515Z,7.37
2019-05-20T05:54:19.076Z,7.57
2019-05-20T05:56:49.683Z,8.03
2019-05-20T05:59:23.044Z,7.90
2019-05-20T06:01:55.566Z,9.60
2019-05-20T06:04:26.226Z,9.37
2019-05-20T06:06:57.099Z,11.73
2019-05-20T06:09:28.346Z,10.83
2019-05-20T06:11:59.008Z,10.47
2019-05-20T06:14:29.480Z,10.40
2019-05-20T06:17:00.092Z,10.83
2019-05-20T06:19:30.601Z,11.40
2019-05-20T06:22:01.441Z,11.50
2019-05-20T06:24:32.116Z,10.43
2019-05-20T06:27:02.682Z,12.10
2019-05-20T06:29:34.497Z,13.47
2019-05-20T06:32:04.974Z,16.73
2019-05-20T06:34:35.713Z,15.20
2019-05-20T06:37:08.647Z,15.33
2019-05-20T06:39:39.258Z,16.30
2019-05-20T06:42:09.867Z,17.10
2019-05-20T06:44:52.164Z,18.53
2019-05-20T06:47:12.541Z,18.90
2019-05-20T06:50:02.104Z,17.13
2019-05-20T06:52:35.889Z,17.07
2019-05-20T06:55:05.613Z,18.83
2019-05-20T06:57:36.133Z,18.33
2019-05-20T07:00:08.109Z,19.57
2019-05-20T07:02:38.688Z,21.10
2019-05-20T07:05:09.487Z,22.73
2019-05-20T07:07:40.131Z,24.93
2019-05-20T07:10:11.414Z,21.43
2019-05-20T07:12:42.476Z,20.17
2019-05-20T07:15:13.201Z,21.57
2019-05-20T07:17:44.294Z,23.43
2019-05-20T07:20:14.987Z,21.20
2019-05-20T07:22:55.667Z,24.17
2019-05-20T07:25:17.789Z,21.70
2019-05-20T07:27:48.396Z,22.30
2019-05-20T07:30:19.161Z,23.23
2019-05-20T07:32:49.740Z,21.87
2019-05-20T07:35:30.037Z,21.53
2019-05-20T07:37:52.534Z,24.00
2019-05-20T07:40:34.014Z,24.23
2019-05-20T07:43:05.722Z,22.87
2019-05-20T07:45:37.694Z,23.93
2019-05-20T07:48:08.344Z,22.07
2019-05-20T07:50:40.036Z,23.47
2019-05-20T07:53:12.409Z,23.77
2019-05-20T07:55:48.029Z,24.07
2019-05-20T07:58:21.791Z,24.50
2019-05-20T08:00:52.808Z,24.83
2019-05-20T08:03:23.428Z,25.40
2019-05-20T08:05:54.000Z,24.77
2019-05-20T08:08:24.549Z,24.63
2019-05-20T08:10:55.143Z,24.43
2019-05-20T08:13:25.801Z,24.33
2019-05-20T08:15:56.288Z,23.57
2019-05-20T08:18:26.836Z,25.70
2019-05-20T08:20:57.380Z,25.27
2019-05-20T08:23:27.980Z,25.50
2019-05-20T08:25:58.515Z,23.83
2019-05-20T08:28:29.079Z,25.30
2019-05-20T08:30:59.761Z,25.53
2019-05-20T08:33:31.407Z,23.67
2019-05-20T08:36:02.160Z,24.97
2019-05-20T08:38:33.122Z,23.37
2019-05-20T08:41:03.853Z,24.10
2019-05-20T08:43:34.387Z,23.30
2019-05-20T08:46:05.067Z,24.60
2019-05-20T08:48:35.695Z,24.43
2019-05-20T08:51:06.419Z,25.10
2019-05-20T08:53:36.972Z,25.70
2019-05-20T08:56:07.597Z,26.53
2019-05-20T08:58:38.120Z,25.77
2019-05-20T09:01:09.966Z,23.40
2019-05-20T09:03:41.407Z,22.83
2019-05-20T09:06:12.049Z,23.20
2019-05-20T09:08:42.969Z,23.20
2019-05-20T09:11:13.547Z,22.00
2019-05-20T09:13:44.219Z,25.40
2019-05-20T09:16:14.957Z,24.27
2019-05-20T09:18:45.500Z,26.10
2019-05-20T09:21:16.132Z,25.67
2019-05-20T09:23:46.669Z,26.53
2019-05-20T09:26:17.274Z,27.33
2019-05-20T09:29:10.781Z,25.63
2019-05-20T09:31:39.698Z,27.60
2019-05-20T09:34:11.826Z,25.23
2019-05-20T09:36:42.414Z,27.20
2019-05-20T09:39:12.882Z,26.70
2019-05-20T09:41:43.462Z,26.53
2019-05-20T09:44:14.001Z,25.67
2019-05-20T09:46:45.673Z,25.97
2019-05-20T09:49:16.254Z,25.83
2019-05-20T09:51:46.967Z,26.50
2019-05-20T09:54:17.474Z,27.63
2019-05-20T09:56:48.524Z,26.43
2019-05-20T09:59:19.418Z,25.27
2019-05-20T10:01:50.473Z,26.03
2019-05-20T10:04:21.195Z,27.17
2019-05-20T10:06:51.866Z,25.77
2019-05-20T10:09:22.454Z,24.63
2019-05-20T10:11:53.267Z,25.93
2019-05-20T10:14:24.240Z,24.97
2019-05-20T10:16:54.713Z,22.77
2019-05-20T10:19:25.319Z,23.80
2019-05-20T10:21:55.974Z,24.70
2019-05-20T10:24:26.438Z,24.10
2019-05-20T10:26:57.238Z,24.50
2019-05-20T10:29:30.688Z,22.53
2019-05-20T10:32:01.233Z,22.40
2019-05-20T10:34:31.811Z,22.63
2019-05-20T10:37:02.452Z,22.80
2019-05-20T10:39:33.039Z,21.37
2019-05-20T10:42:03.509Z,24.37
2019-05-20T10:44:34.208Z,20.90
2019-05-20T10:47:04.766Z,21.57
2019-05-20T10:49:35.358Z,20.70
2019-05-20T10:52:05.939Z,21.50
2019-05-20T10:54:36.514Z,23.10
2019-05-20T10:57:07.064Z,21.50
2019-05-20T10:59:37.673Z,20.27
2019-05-20T11:02:08.274Z,20.77
2019-05-20T11:04:38.824Z,18.90
2019-05-20T11:07:09.480Z,21.20
2019-05-20T11:09:40.014Z,18.50
2019-05-20T11:12:10.747Z,18.97
2019-05-20T11:14:41.323Z,20.20
2019-05-20T11:17:15.172Z,19.13
2019-05-20T11:19:45.400Z,19.37
2019-05-20T11:22:16.051Z,18.20
2019-05-20T11:24:46.635Z,18.97
2019-05-20T11:27:20.332Z,19.77
2019-05-20T11:29:50.845Z,19.03
2019-05-20T11:32:21.469Z,17.50
2019-05-20T11:34:52.059Z,17.20
2019-05-20T11:37:22.675Z,16.70
2019-05-20T11:39:53.353Z,19.07
2019-05-20T11:45:57.775Z,18.87
2019-05-20T11:48:59.721Z,18.53
2019-05-20T11:51:41.919Z,19.27
2019-05-20T11:54:23.806Z,19.67
2019-05-20T11:57:06.286Z,21.43
2019-05-20T11:59:48.207Z,21.03
2019-05-20T12:02:30.160Z,19.47
2019-05-20T12:05:12.116Z,20.77
2019-05-20T12:07:54.122Z,24.00
2019-05-20T12:10:36.607Z,22.13
2019-05-20T12:13:18.874Z,24.23
2019-05-20T12:16:01.035Z,23.53
2019-05-20T12:18:45.214Z,25.47
2019-05-20T12:21:26.525Z,21.57
2019-05-20T12:24:08.336Z,23.47
2019-05-20T12:26:50.378Z,24.90
2019-05-20T12:29:32.246Z,25.93
2019-05-20T12:32:14.794Z,24.37
2019-05-20T12:34:56.704Z,25.77
2019-05-20T12:37:39.009Z,24.00
2019-05-20T12:40:21.163Z,22.53
2019-05-20T12:43:03.398Z,22.97
2019-05-20T12:45:45.844Z,24.53
2019-05-20T12:48:27.653Z,22.40
2019-05-20T12:51:09.976Z,24.37
2019-05-20T12:53:52.187Z,21.03
2019-05-20T12:56:34.756Z,22.00
2019-05-20T12:59:16.856Z,21.60
2019-05-20T13:01:59.204Z,20.23
2019-05-20T13:04:41.390Z,19.67
2019-05-20T13:07:23.363Z,19.20
2019-05-20T13:10:05.674Z,17.50
2019-05-20T13:12:47.894Z,16.10
2019-05-20T13:15:29.883Z,16.30
2019-05-20T13:18:11.921Z,15.47
2019-05-20T13:20:53.989Z,14.23
2019-05-20T13:23:35.730Z,14.37
2019-05-20T13:26:18.122Z,15.40
2019-05-20T13:29:00.182Z,12.30
2019-05-20T13:31:42.298Z,13.90
2019-05-20T13:34:25.034Z,12.33
2019-05-20T13:37:06.858Z,13.37
2019-05-20T13:39:49.667Z,12.30
2019-05-20T13:42:31.596Z,13.20
2019-05-20T13:45:13.626Z,13.67
2019-05-20T13:47:56.046Z,13.90
2019-05-20T13:50:38.134Z,13.93
2019-05-20T13:53:20.185Z,13.33
2019-05-20T13:56:02.530Z,13.60
2019-05-20T13:58:44.375Z,14.80
2019-05-20T14:01:26.889Z,13.97
2019-05-20T14:04:09.306Z,13.50
2019-05-20T14:06:51.745Z,13.63
2019-05-20T14:09:33.939Z,14.00
2019-05-20T14:12:17.499Z,14.47
2019-05-20T14:14:59.935Z,14.50
2019-05-20T14:17:41.966Z,14.77
2019-05-20T14:20:24.028Z,15.03
2019-05-20T14:23:06.125Z,14.40
2019-05-20T14:25:48.184Z,15.17
2019-05-20T14:28:30.116Z,13.23
2019-05-20T14:31:12.231Z,13.83
2019-05-20T14:33:54.452Z,14.67
2019-05-20T14:36:39.772Z,16.73
2019-05-20T14:39:20.771Z,14.77
2019-05-20T14:42:02.599Z,14.03
2019-05-20T14:44:44.901Z,15.97
2019-05-20T14:47:26.892Z,16.63
2019-05-20T14:50:09.348Z,16.03
2019-05-20T14:52:52.081Z,16.53
2019-05-20T14:55:42.068Z,15.73
2019-05-20T14:58:18.407Z,17.93
2019-05-20T15:01:00.120Z,17.13
2019-05-20T15:03:42.150Z,15.97
2019-05-20T15:06:24.328Z,16.23
2019-05-20T15:09:06.528Z,16.20
2019-05-20T15:11:48.974Z,18.00
2019-05-20T15:14:31.022Z,16.90
2019-05-20T15:17:13.203Z,16.07
2019-05-20T15:19:55.125Z,17.80
2019-05-20T15:22:37.805Z,16.90
2019-05-20T15:25:19.750Z,17.17
2019-05-20T15:28:01.998Z,18.27
2019-05-20T15:30:44.008Z,18.33
2019-05-20T15:33:26.121Z,19.23
2019-05-20T15:36:08.160Z,18.90
2019-05-20T15:38:50.629Z,19.70
2019-05-20T15:41:32.458Z,22.17
2019-05-20T15:44:14.771Z,21.20
2019-05-20T15:46:56.808Z,21.80
2019-05-20T15:49:39.366Z,22.67
2019-05-20T15:52:21.695Z,24.63
2019-05-20T15:55:04.129Z,23.80
2019-05-20T15:57:46.410Z,24.83
2019-05-20T16:00:28.298Z,24.03
2019-05-20T16:03:10.173Z,26.27
2019-05-20T16:05:52.393Z,24.93
2019-05-20T16:08:34.639Z,24.43
2019-05-20T16:11:16.972Z,24.23
2019-05-20T16:13:58.747Z,24.27
2019-05-20T16:16:41.082Z,25.70
2019-05-20T16:19:23.399Z,22.77
2019-05-20T16:22:05.269Z,22.87
2019-05-20T16:24:47.355Z,23.63
2019-05-20T16:27:32.711Z,24.77
2019-05-20T16:30:13.027Z,23.97
2019-05-20T16:32:55.531Z,25.50
2019-05-20T16:35:37.908Z,28.27
2019-05-20T16:38:20.411Z,24.77
2019-05-20T16:41:02.455Z,26.43
2019-05-20T16:43:44.330Z,25.07
2019-05-20T16:46:26.470Z,27.83
2019-05-20T16:49:08.610Z,26.57
2019-05-20T16:51:51.981Z,32.10
2019-05-20T16:54:34.383Z,28.50
2019-05-20T16:57:16.459Z,28.37
2019-05-20T16:59:58.369Z,31.27
2019-05-20T17:02:41.006Z,26.97
2019-05-20T17:05:23.259Z,29.00
2019-05-20T17:08:05.694Z,26.83
2019-05-20T17:10:47.579Z,33.57
2019-05-20T17:13:29.620Z,29.03
2019-05-20T17:16:11.546Z,28.60
2019-05-20T17:18:53.559Z,29.43
2019-05-20T17:21:35.689Z,26.53
2019-05-20T17:24:17.457Z,26.00
2019-05-20T17:26:59.634Z,23.93
2019-05-20T17:29:41.867Z,27.77
2019-05-20T17:32:23.927Z,25.77
2019-05-20T17:35:06.650Z,29.27
2019-05-20T17:37:48.877Z,26.83
2019-05-20T17:40:31.111Z,30.03
2019-05-20T17:43:13.242Z,27.53
2019-05-20T17:45:56.443Z,30.97
2019-05-20T17:48:38.475Z,29.23
2019-05-20T17:51:20.412Z,30.03
2019-05-20T17:54:02.175Z,27.77
2019-05-20T17:56:44.078Z,25.13
2019-05-20T17:59:25.935Z,27.43
2019-05-20T18:02:09.688Z,25.03
2019-05-20T18:04:52.095Z,24.43
2019-05-20T18:07:34.534Z,25.50
2019-05-20T18:10:18.045Z,22.20
2019-05-20T18:13:00.206Z,20.63
2019-05-20T18:15:42.288Z,20.03
2019-05-20T18:18:24.371Z,17.90
2019-05-20T18:21:06.513Z,15.13
2019-05-20T18:23:49.067Z,14.67
2019-05-20T18:26:31.286Z,12.73
2019-05-20T18:29:13.332Z,12.20
2019-05-20T18:31:55.254Z,11.67
2019-05-20T18:34:37.013Z,11.40
2019-05-20T18:37:19.238Z,13.07
2019-05-20T18:40:13.386Z,14.37
2019-05-20T18:42:45.481Z,13.20
2019-05-20T18:45:27.487Z,15.13
2019-05-20T18:48:08.190Z,14.50
2019-05-20T19:00:35.558Z,16.53
2019-05-20T19:03:56.345Z,16.60
2019-05-20T19:13:24.374Z,19.67
2019-05-20T19:25:52.975Z,25.57
2019-05-20T19:38:23.475Z,20.73
2019-05-20T19:41:05.224Z,21.03
2019-05-20T19:43:47.252Z,21.17
2019-05-20T19:46:29.789Z,21.03
2019-05-20T19:49:11.874Z,20.73
2019-05-20T19:51:54.240Z,20.37
2019-05-20T19:54:36.574Z,21.57
2019-05-20T19:57:18.439Z,18.70
2019-05-20T20:00:01.080Z,23.33
2019-05-20T20:02:43.551Z,19.83
2019-05-20T20:05:25.660Z,22.53
2019-05-20T20:08:07.552Z,19.63
2019-05-20T20:10:49.924Z,24.20
2019-05-20T20:13:34.294Z,27.73
2019-05-20T20:16:18.072Z,25.23
2019-05-20T20:19:00.098Z,24.13
2019-05-20T20:21:41.845Z,29.57
2019-05-20T20:24:24.040Z,34.70
2019-05-20T20:27:07.188Z,28.30
2019-05-20T20:29:49.299Z,28.80
2019-05-20T20:32:37.755Z,30.43
2019-05-20T20:35:15.591Z,32.70
2019-05-20T20:37:57.452Z,32.30
2019-05-20T20:40:39.729Z,31.40
2019-05-20T20:43:21.687Z,30.47
2019-05-20T20:46:03.679Z,31.77
2019-05-20T20:48:45.735Z,34.77
2019-05-20T20:51:27.896Z,33.20
2019-05-20T20:54:10.245Z,35.03
2019-05-20T20:56:52.240Z,33.33
2019-05-20T20:59:34.436Z,32.37
2019-05-20T21:02:16.811Z,34.70
2019-05-20T21:04:58.880Z,38.97
2019-05-20T21:07:41.302Z,34.00
2019-05-20T21:10:23.333Z,34.27
2019-05-20T21:13:05.280Z,37.90
2019-05-20T21:15:48.118Z,36.97
2019-05-20T21:18:30.255Z,37.30
2019-05-20T21:21:12.276Z,32.40
2019-05-20T21:23:54.249Z,38.47
2019-05-20T21:26:36.198Z,38.70
2019-05-20T21:29:18.158Z,32.40
2019-05-20T21:31:59.930Z,33.03
2019-05-20T21:34:41.858Z,26.23
2019-05-20T21:37:23.912Z,24.20
2019-05-20T21:40:06.099Z,22.20
2019-05-20T21:42:47.850Z,19.23
2019-05-20T21:45:30.463Z,13.73
2019-05-20T21:48:12.384Z,12.47
2019-05-20T21:50:54.231Z,11.90
2019-05-20T21:53:36.826Z,11.33
2019-05-20T21:56:18.947Z,9.20
2019-05-20T21:59:01.488Z,9.13
2019-05-20T22:01:43.194Z,8.00
2019-05-20T22:04:26.593Z,8.37
2019-05-20T22:07:08.891Z,6.50
2019-05-20T22:09:50.622Z,7.00
2019-05-20T22:12:32.634Z,6.53
2019-05-20T22:15:14.853Z,5.40
2019-05-20T22:17:56.649Z,6.90
2019-05-20T22:20:39.148Z,5.47
2019-05-20T22:23:40.433Z,4.77
2019-05-20T22:26:22.703Z,4.80
2019-05-20T22:29:05.056Z,5.53
2019-05-20T22:31:47.058Z,6.10
2019-05-20T22:34:29.416Z,6.23
2019-05-20T22:37:11.902Z,6.60
2019-05-20T22:39:54.149Z,5.77
2019-05-20T22:42:36.193Z,4.80
2019-05-20T22:45:18.545Z,5.07
2019-05-20T22:48:00.759Z,5.10
2019-05-20T22:50:43.116Z,4.40
2019-05-20T22:53:25.247Z,5.23
2019-05-20T22:56:07.372Z,4.27
2019-05-20T22:58:49.115Z,4.27
2019-05-20T23:01:31.473Z,4.33
2019-05-20T23:04:13.293Z,3.93
2019-05-20T23:06:56.108Z,7.17
2019-05-20T23:09:38.519Z,5.90
2019-05-20T23:12:20.601Z,4.87
2019-05-20T23:15:02.985Z,3.63
2019-05-20T23:17:45.870Z,4.60
2019-05-20T23:20:28.152Z,4.13
2019-05-20T23:23:10.359Z,3.87
2019-05-20T23:25:53.115Z,3.43
2019-05-20T23:28:34.822Z,4.13
2019-05-20T23:31:16.666Z,5.30
2019-05-20T23:34:11.726Z,7.37
2019-05-20T23:36:42.530Z,6.90
2019-05-20T23:39:24.468Z,6.50
2019-05-20T23:42:06.404Z,6.70
2019-05-20T23:44:36.963Z,5.03
2019-05-20T23:47:07.899Z,7.53
2019-05-20T23:49:40.021Z,5.67
2019-05-20T23:52:10.558Z,5.93
2019-05-20T23:54:41.439Z,5.20
2019-05-20T23:57:12.047Z,5.00
2019-05-20T23:59:42.573Z,5.93
